createdAt,value
2022-11-06T00:01:46.389Z,4.40
2022-11-06T00:04:13.564Z,3.50
2022-11-06T00:06:49.954Z,4.10
2022-11-06T00:09:19.581Z,3.70
2022-11-06T00:11:51.068Z,4.27
2022-11-06T00:14:18.371Z,4.13
2022-11-06T00:16:46.890Z,3.37
2022-11-06T00:19:14.405Z,3.90
2022-11-06T00:21:41.746Z,4.03
2022-11-06T00:24:12.065Z,4.50
2022-11-06T00:26:39.352Z,4.00
2022-11-06T00:29:06.860Z,3.93
2022-11-06T00:31:37.043Z,3.77
2022-11-06T00:34:08.819Z,3.60
2022-11-06T00:36:36.157Z,4.50
2022-11-06T00:39:03.835Z,4.47
2022-11-06T00:41:31.243Z,4.53
2022-11-06T00:44:00.484Z,4.07
2022-11-06T00:46:28.118Z,4.10
2022-11-06T00:48:55.910Z,4.73
2022-11-06T00:51:26.352Z,4.40
2022-11-06T00:53:55.754Z,4.33
2022-11-06T00:56:23.757Z,4.17
2022-11-06T00:58:51.119Z,4.40
2022-11-06T01:01:20.337Z,4.27
2022-11-06T01:03:54.900Z,4.10
2022-11-06T01:06:23.935Z,4.67
2022-11-06T01:08:52.049Z,3.97
2022-11-06T01:11:37.524Z,3.93
2022-11-06T01:14:15.875Z,4.40
2022-11-06T01:16:43.739Z,4.20
2022-11-06T01:19:12.894Z,4.33
2022-11-06T01:21:42.224Z,3.93
2022-11-06T01:24:16.146Z,4.20
2022-11-06T01:27:04.879Z,4.37
2022-11-06T01:29:31.535Z,4.40
2022-11-06T01:31:58.719Z,4.33
2022-11-06T01:34:26.238Z,5.00
2022-11-06T01:36:53.460Z,4.57
2022-11-06T01:39:20.740Z,4.10
2022-11-06T01:41:50.885Z,3.77
2022-11-06T01:44:56.336Z,4.30
2022-11-06T01:47:26.960Z,4.03
2022-11-06T01:49:57.699Z,4.43
2022-11-06T01:52:26.867Z,3.80
2022-11-06T01:54:59.348Z,3.87
2022-11-06T01:57:26.927Z,3.70
2022-11-06T01:59:55.257Z,3.83
2022-11-06T02:02:23.697Z,4.10
2022-11-06T02:04:50.979Z,4.80
2022-11-06T02:07:20.064Z,3.53
2022-11-06T02:09:47.495Z,3.40
2022-11-06T02:12:46.871Z,3.23
2022-11-06T02:15:27.259Z,3.20
2022-11-06T02:18:18.316Z,4.27
2022-11-06T02:21:17.236Z,3.90
2022-11-06T02:23:50.294Z,3.47
2022-11-06T02:26:44.713Z,4.17
2022-11-06T02:29:21.979Z,3.87
2022-11-06T02:31:54.551Z,3.53
2022-11-06T02:34:27.240Z,4.20
2022-11-06T02:37:07.161Z,4.00
2022-11-06T02:39:38.272Z,4.43
2022-11-06T02:42:09.069Z,3.50
2022-11-06T02:44:38.891Z,3.80
2022-11-06T02:47:09.658Z,3.60
2022-11-06T02:49:47.614Z,4.10
2022-11-06T02:52:18.840Z,4.30
2022-11-06T02:54:56.025Z,4.30
2022-11-06T02:57:26.908Z,4.43
2022-11-06T03:00:06.304Z,3.77
2022-11-06T03:02:40.638Z,4.20
2022-11-06T03:05:28.942Z,4.63
2022-11-06T03:08:07.729Z,5.03
2022-11-06T03:10:44.825Z,4.60
2022-11-06T03:13:20.458Z,3.93
2022-11-06T03:16:04.869Z,3.90
2022-11-06T03:18:42.711Z,3.40
2022-11-06T03:21:21.824Z,4.13
2022-11-06T03:24:03.849Z,3.90
2022-11-06T03:26:37.046Z,4.30
2022-11-06T03:29:20.956Z,3.40
2022-11-06T03:31:58.645Z,4.47
2022-11-06T03:34:32.280Z,4.70
2022-11-06T03:37:07.260Z,4.00
2022-11-06T03:39:42.468Z,4.20
2022-11-06T03:42:14.829Z,3.63
2022-11-06T03:44:49.255Z,4.30
2022-11-06T03:47:29.337Z,3.33
2022-11-06T03:50:07.376Z,3.33
2022-11-06T03:52:43.585Z,4.00
2022-11-06T03:55:18.824Z,2.93
2022-11-06T03:57:53.934Z,4.00
2022-11-06T04:00:21.231Z,4.10
2022-11-06T04:03:05.276Z,3.63
2022-11-06T04:05:47.364Z,4.17
2022-11-06T04:08:36.206Z,4.27
2022-11-06T04:11:24.568Z,4.03
2022-11-06T04:14:04.322Z,3.73
2022-11-06T04:16:42.843Z,3.60
2022-11-06T04:19:18.679Z,3.87
2022-11-06T04:22:16.777Z,4.40
2022-11-06T04:25:21.447Z,3.70
2022-11-06T04:28:06.407Z,4.10
2022-11-06T04:30:42.013Z,3.40
2022-11-06T04:33:21.062Z,4.10
2022-11-06T04:36:06.791Z,3.47
2022-11-06T04:39:07.605Z,3.70
2022-11-06T04:42:08.477Z,3.63
2022-11-06T04:44:40.783Z,4.27
2022-11-06T04:47:11.904Z,4.90
2022-11-06T04:49:42.113Z,3.67
2022-11-06T04:52:17.163Z,3.17
2022-11-06T04:54:46.286Z,3.67
2022-11-06T04:57:13.755Z,3.80
2022-11-06T04:59:41.250Z,3.77
2022-11-06T05:02:08.638Z,3.90
2022-11-06T05:04:35.881Z,3.60
2022-11-06T05:07:03.629Z,3.20
2022-11-06T05:09:30.856Z,3.17
2022-11-06T05:11:58.084Z,3.50
2022-11-06T05:14:25.239Z,3.40
2022-11-06T05:16:52.384Z,3.87
2022-11-06T05:19:19.530Z,3.27
2022-11-06T05:22:05.205Z,4.00
2022-11-06T05:24:32.911Z,3.53
2022-11-06T05:27:00.099Z,3.50
2022-11-06T05:29:27.335Z,3.37
2022-11-06T05:31:54.605Z,3.63
2022-11-06T05:34:21.932Z,2.67
2022-11-06T05:36:49.099Z,2.70
2022-11-06T05:39:16.329Z,2.57
2022-11-06T05:41:43.498Z,3.10
2022-11-06T05:44:11.554Z,4.00
2022-11-06T05:46:54.108Z,3.20
2022-11-06T05:49:21.438Z,3.17
2022-11-06T05:51:48.652Z,3.20
2022-11-06T05:54:15.983Z,3.77
2022-11-06T05:56:43.144Z,3.90
2022-11-06T05:59:10.799Z,3.93
2022-11-06T06:01:38.083Z,3.00
2022-11-06T06:04:05.369Z,3.40
2022-11-06T06:06:33.299Z,3.73
2022-11-06T06:09:00.483Z,3.10
2022-11-06T06:11:27.644Z,3.73
2022-11-06T06:13:54.825Z,3.40
2022-11-06T06:16:21.970Z,3.43
2022-11-06T06:18:51.292Z,4.10
2022-11-06T06:21:18.651Z,3.73
2022-11-06T06:23:46.267Z,3.53
2022-11-06T06:26:13.415Z,4.70
2022-11-06T06:28:40.552Z,3.50
2022-11-06T06:31:09.670Z,3.90
2022-11-06T06:33:37.344Z,3.37
2022-11-06T06:36:06.099Z,3.50
2022-11-06T06:38:33.723Z,3.40
2022-11-06T06:41:05.772Z,4.23
2022-11-06T06:43:33.595Z,3.70
2022-11-06T06:46:06.524Z,3.30
2022-11-06T06:48:33.780Z,3.23
2022-11-06T06:51:02.146Z,4.00
2022-11-06T06:53:30.128Z,3.53
2022-11-06T06:56:01.607Z,3.40
2022-11-06T06:58:32.252Z,4.27
2022-11-06T07:01:02.160Z,3.50
2022-11-06T07:03:30.383Z,3.70
2022-11-06T07:06:00.380Z,3.37
2022-11-06T07:08:28.620Z,3.60
2022-11-06T07:11:04.072Z,4.00
2022-11-06T07:13:35.931Z,3.63
2022-11-06T07:16:06.017Z,3.40
2022-11-06T07:18:34.988Z,3.83
2022-11-06T07:21:05.783Z,3.10
2022-11-06T07:23:34.654Z,3.47
2022-11-06T07:26:03.912Z,3.33
2022-11-06T07:28:32.343Z,3.43
2022-11-06T07:31:05.476Z,2.97
2022-11-06T07:33:33.310Z,3.30
2022-11-06T07:36:09.884Z,3.30
2022-11-06T07:38:38.524Z,3.80
2022-11-06T07:41:08.517Z,4.00
2022-11-06T07:43:36.303Z,3.17
2022-11-06T07:46:06.838Z,2.27
2022-11-06T07:48:34.160Z,3.23
2022-11-06T07:51:06.783Z,1.77
2022-11-06T07:53:38.824Z,3.07
2022-11-06T07:56:06.433Z,3.43
2022-11-06T07:58:33.826Z,2.80
2022-11-06T08:01:01.392Z,2.90
2022-11-06T08:03:32.053Z,2.20
2022-11-06T08:06:03.327Z,2.43
2022-11-06T08:08:31.295Z,2.60
2022-11-06T08:11:03.240Z,2.50
2022-11-06T08:13:30.489Z,2.77
2022-11-06T08:15:57.625Z,2.40
2022-11-06T08:18:24.810Z,2.30
2022-11-06T08:20:52.918Z,2.60
2022-11-06T08:23:20.107Z,2.13
2022-11-06T08:25:47.760Z,2.50
2022-11-06T08:28:15.603Z,2.10
2022-11-06T08:30:43.214Z,2.40
2022-11-06T08:33:11.340Z,2.10
2022-11-06T08:35:38.545Z,2.10
2022-11-06T08:38:05.752Z,2.20
2022-11-06T08:40:33.530Z,2.30
2022-11-06T08:43:02.664Z,2.60
2022-11-06T08:45:30.287Z,2.47
2022-11-06T08:48:01.878Z,2.10
2022-11-06T08:50:29.837Z,2.20
2022-11-06T08:52:58.170Z,2.60
2022-11-06T08:55:25.493Z,1.90
2022-11-06T08:57:55.516Z,2.00
2022-11-06T09:00:23.149Z,2.40
2022-11-06T09:02:50.452Z,1.90
2022-11-06T09:05:17.681Z,2.07
2022-11-06T09:07:44.892Z,2.20
2022-11-06T09:10:12.061Z,2.07
2022-11-06T09:12:39.222Z,1.77
2022-11-06T09:15:07.563Z,2.00
2022-11-06T09:17:34.743Z,1.87
2022-11-06T09:20:01.982Z,1.93
2022-11-06T09:22:29.135Z,1.70
2022-11-06T09:25:04.511Z,1.90
2022-11-06T09:27:32.405Z,2.00
2022-11-06T09:29:59.585Z,1.80
2022-11-06T09:32:26.752Z,1.73
2022-11-06T09:34:53.933Z,1.43
2022-11-06T09:37:21.078Z,2.03
2022-11-06T09:39:48.435Z,1.90
2022-11-06T09:42:35.482Z,1.80
2022-11-06T09:45:13.521Z,1.97
2022-11-06T09:47:47.600Z,1.70
2022-11-06T09:50:35.284Z,2.17
2022-11-06T09:53:10.860Z,1.70
2022-11-06T09:55:41.904Z,1.90
2022-11-06T09:58:23.487Z,2.07
2022-11-06T10:00:53.190Z,2.10
2022-11-06T10:03:59.960Z,1.50
2022-11-06T10:06:28.454Z,1.70
2022-11-06T10:09:00.939Z,1.70
2022-11-06T10:12:12.702Z,1.47
2022-11-06T10:15:04.737Z,1.90
2022-11-06T10:17:48.819Z,1.70
2022-11-06T10:20:26.541Z,1.63
2022-11-06T10:23:04.787Z,1.43
2022-11-06T10:25:53.062Z,1.57
2022-11-06T10:28:34.126Z,1.33
2022-11-06T10:31:26.090Z,1.80
2022-11-06T10:33:57.057Z,1.73
2022-11-06T10:36:30.334Z,1.30
2022-11-06T10:38:59.689Z,1.63
2022-11-06T10:41:30.716Z,1.43
2022-11-06T10:44:21.686Z,1.67
2022-11-06T10:47:20.435Z,1.80
2022-11-06T10:49:55.478Z,1.67
2022-11-06T10:52:39.766Z,1.80
2022-11-06T10:55:41.653Z,4.40
2022-11-06T10:58:20.853Z,1.40
2022-11-06T11:00:50.142Z,1.73
2022-11-06T11:03:36.253Z,1.80
2022-11-06T11:06:04.941Z,1.30
2022-11-06T11:08:39.689Z,1.20
2022-11-06T11:11:18.868Z,1.20
2022-11-06T11:13:57.384Z,1.43
2022-11-06T11:16:31.956Z,1.50
2022-11-06T11:19:45.697Z,1.30
2022-11-06T11:22:15.939Z,1.30
2022-11-06T11:25:04.540Z,1.30
2022-11-06T11:27:44.179Z,1.63
2022-11-06T11:30:21.356Z,1.57
2022-11-06T11:32:49.455Z,1.30
2022-11-06T11:35:21.718Z,1.13
2022-11-06T11:37:49.059Z,1.10
2022-11-06T11:40:36.372Z,1.50
2022-11-06T11:43:19.512Z,1.40
2022-11-06T11:46:14.799Z,1.50
2022-11-06T11:48:50.224Z,1.27
2022-11-06T11:51:42.922Z,1.30
2022-11-06T11:54:13.779Z,1.23
2022-11-06T11:57:10.441Z,1.50
2022-11-06T11:59:55.028Z,1.70
2022-11-06T12:02:43.657Z,1.50
2022-11-06T12:05:17.302Z,1.40
2022-11-06T12:07:49.277Z,1.63
2022-11-06T12:10:26.115Z,1.40
2022-11-06T12:12:55.466Z,1.50
2022-11-06T12:15:40.289Z,1.10
2022-11-06T12:18:13.957Z,1.47
2022-11-06T12:21:02.911Z,1.27
2022-11-06T12:23:36.241Z,1.43
2022-11-06T12:26:29.745Z,1.00
2022-11-06T12:29:05.434Z,1.10
2022-11-06T12:31:45.129Z,1.10
2022-11-06T12:34:33.118Z,1.20
2022-11-06T12:37:18.223Z,1.13
2022-11-06T12:40:09.217Z,1.20
2022-11-06T12:42:38.087Z,1.17
2022-11-06T12:45:12.481Z,1.43
2022-11-06T12:48:11.021Z,1.17
2022-11-06T12:50:50.260Z,1.27
2022-11-06T12:53:36.964Z,1.03
2022-11-06T12:56:21.839Z,1.20
2022-11-06T12:59:20.927Z,1.20
2022-11-06T13:02:07.448Z,1.17
2022-11-06T13:04:55.663Z,1.10
2022-11-06T13:07:59.229Z,1.57
2022-11-06T13:10:36.649Z,1.50
2022-11-06T13:13:15.338Z,1.67
2022-11-06T13:15:52.055Z,1.50
2022-11-06T13:18:33.649Z,1.40
2022-11-06T13:21:06.291Z,1.80
2022-11-06T13:23:40.195Z,2.13
2022-11-06T13:26:30.474Z,1.57
2022-11-06T13:29:02.111Z,1.43
2022-11-06T13:31:36.591Z,1.90
2022-11-06T13:34:06.038Z,1.80
2022-11-06T13:36:37.559Z,1.57
2022-11-06T13:39:27.245Z,2.17
2022-11-06T13:41:56.400Z,1.57
2022-11-06T13:44:25.214Z,2.33
2022-11-06T13:47:09.090Z,1.73
2022-11-06T13:49:48.081Z,2.00
2022-11-06T13:52:29.590Z,1.67
2022-11-06T13:55:25.098Z,1.80
2022-11-06T13:58:22.636Z,1.70
2022-11-06T14:01:05.023Z,1.50
2022-11-06T14:04:09.839Z,1.80
2022-11-06T14:06:38.512Z,1.20
2022-11-06T14:09:07.490Z,1.77
2022-11-06T14:11:38.195Z,2.27
2022-11-06T14:14:22.876Z,1.50
2022-11-06T14:17:21.901Z,2.00
2022-11-06T14:20:02.318Z,1.87
2022-11-06T14:22:36.341Z,2.00
2022-11-06T14:25:28.442Z,1.50
2022-11-06T14:27:55.561Z,1.70
2022-11-06T14:30:57.429Z,1.77
2022-11-06T14:33:40.350Z,1.90
2022-11-06T14:36:34.039Z,1.80
2022-11-06T14:39:03.548Z,2.00
2022-11-06T14:41:38.324Z,1.80
2022-11-06T14:44:11.423Z,1.70
2022-11-06T14:46:38.932Z,1.40
2022-11-06T14:49:23.391Z,1.97
2022-11-06T14:52:10.192Z,1.50
2022-11-06T14:54:41.419Z,1.50
2022-11-06T14:57:15.190Z,1.77
2022-11-06T14:59:43.385Z,1.40
2022-11-06T15:02:24.800Z,1.50
2022-11-06T15:05:00.873Z,1.60
2022-11-06T15:08:06.844Z,2.17
2022-11-06T15:10:43.397Z,1.73
2022-11-06T15:13:18.367Z,1.80
2022-11-06T15:15:49.727Z,2.00
2022-11-06T15:18:22.580Z,2.17
2022-11-06T15:20:59.781Z,1.93
2022-11-06T15:23:54.676Z,2.07
2022-11-06T15:26:37.929Z,2.20
2022-11-06T15:29:17.066Z,2.03
2022-11-06T15:31:47.482Z,1.90
2022-11-06T15:34:35.704Z,1.70
2022-11-06T15:37:24.141Z,2.37
2022-11-06T15:40:00.682Z,2.20
2022-11-06T15:42:37.027Z,1.63
2022-11-06T15:45:09.844Z,1.80
2022-11-06T15:47:37.109Z,2.07
2022-11-06T15:50:19.733Z,2.50
2022-11-06T15:52:48.027Z,2.33
2022-11-06T15:55:27.392Z,1.67
2022-11-06T15:58:05.032Z,1.67
2022-11-06T16:00:35.731Z,1.70
2022-11-06T16:03:05.547Z,1.60
2022-11-06T16:05:36.902Z,1.57
2022-11-06T16:08:06.468Z,2.13
2022-11-06T16:10:36.169Z,2.10
2022-11-06T16:13:04.074Z,2.40
2022-11-06T16:15:49.710Z,2.33
2022-11-06T16:18:17.030Z,2.23
2022-11-06T16:20:46.793Z,2.47
2022-11-06T16:23:18.829Z,2.30
2022-11-06T16:25:46.603Z,2.10
2022-11-06T16:28:21.650Z,2.10
2022-11-06T16:30:49.829Z,1.90
2022-11-06T16:33:22.694Z,2.40
2022-11-06T16:35:55.333Z,2.20
2022-11-06T16:38:42.286Z,2.53
2022-11-06T16:41:12.234Z,3.07
2022-11-06T16:43:39.738Z,2.00
2022-11-06T16:46:08.282Z,2.37
2022-11-06T16:48:37.759Z,2.13
2022-11-06T16:51:10.963Z,2.30
2022-11-06T16:53:57.183Z,2.50
2022-11-06T16:56:30.453Z,2.60
2022-11-06T16:59:08.696Z,2.97
2022-11-06T17:01:48.172Z,2.40
2022-11-06T17:04:26.948Z,2.00
2022-11-06T17:06:54.529Z,2.90
2022-11-06T17:09:33.718Z,1.80
2022-11-06T17:12:02.726Z,2.53
2022-11-06T17:14:31.110Z,2.00
2022-11-06T17:17:00.839Z,2.30
2022-11-06T17:19:29.195Z,2.20
2022-11-06T17:21:57.800Z,1.80
2022-11-06T17:24:41.093Z,1.93
2022-11-06T17:27:08.506Z,1.80
2022-11-06T17:29:36.292Z,2.10
2022-11-06T17:32:04.577Z,1.70
2022-11-06T17:34:32.193Z,2.17
2022-11-06T17:36:59.498Z,1.70
2022-11-06T17:39:26.863Z,1.90
2022-11-06T17:41:54.410Z,1.90
2022-11-06T17:44:22.278Z,1.90
2022-11-06T17:46:50.872Z,2.40
2022-11-06T17:49:18.871Z,1.87
2022-11-06T17:51:50.691Z,2.20
2022-11-06T17:54:22.974Z,2.13
2022-11-06T17:56:51.231Z,1.90
2022-11-06T17:59:18.666Z,1.63
2022-11-06T18:01:52.768Z,1.60
2022-11-06T18:04:22.082Z,1.80
2022-11-06T18:06:51.938Z,1.63
2022-11-06T18:09:20.809Z,1.50
2022-11-06T18:11:53.646Z,1.90
2022-11-06T18:14:22.376Z,1.90
2022-11-06T18:16:50.518Z,1.97
2022-11-06T18:19:20.967Z,2.10
2022-11-06T18:21:48.761Z,1.83
2022-11-06T18:24:16.161Z,1.50
2022-11-06T18:26:43.562Z,2.27
2022-11-06T18:29:13.078Z,1.80
2022-11-06T18:31:40.892Z,2.07
2022-11-06T18:34:18.387Z,1.83
2022-11-06T18:36:48.878Z,2.13
2022-11-06T18:39:16.284Z,2.10
2022-11-06T18:41:43.769Z,2.60
2022-11-06T18:44:11.243Z,1.80
2022-11-06T18:46:38.528Z,1.90
2022-11-06T18:49:05.895Z,1.97
2022-11-06T18:51:35.630Z,1.67
2022-11-06T18:54:08.165Z,1.70
2022-11-06T18:56:37.131Z,2.13
2022-11-06T18:59:06.349Z,1.73
2022-11-06T19:01:35.227Z,1.80
2022-11-06T19:04:04.034Z,2.20
2022-11-06T19:06:31.927Z,1.97
2022-11-06T19:08:59.552Z,2.00
2022-11-06T19:11:26.921Z,1.63
2022-11-06T19:13:54.226Z,1.80
2022-11-06T19:16:21.973Z,1.90
2022-11-06T19:21:32.485Z,1.90
2022-11-06T19:24:03.894Z,1.70
2022-11-06T19:26:33.014Z,2.17
2022-11-06T19:29:01.264Z,2.03
2022-11-06T19:31:30.385Z,1.70
2022-11-06T19:33:59.034Z,1.67
2022-11-06T19:36:26.738Z,1.70
2022-11-06T19:38:54.403Z,1.67
2022-11-06T19:41:21.844Z,2.00
2022-11-06T19:43:49.420Z,2.00
2022-11-06T19:46:25.712Z,1.70
2022-11-06T19:48:54.692Z,2.30
2022-11-06T19:51:22.026Z,1.77
2022-11-06T19:53:53.232Z,1.30
2022-11-06T19:56:21.344Z,1.90
2022-11-06T19:58:50.064Z,1.83
2022-11-06T20:01:18.176Z,1.87
2022-11-06T20:03:45.684Z,1.90
2022-11-06T20:06:13.771Z,1.73
2022-11-06T20:08:41.450Z,1.87
2022-11-06T20:11:13.984Z,2.03
2022-11-06T20:13:42.494Z,1.90
2022-11-06T20:16:12.943Z,1.90
2022-11-06T20:18:40.676Z,1.93
2022-11-06T20:21:10.779Z,1.97
2022-11-06T20:23:38.503Z,1.70
2022-11-06T20:26:06.467Z,2.07
2022-11-06T20:28:34.162Z,1.90
2022-11-06T20:31:10.203Z,2.03
2022-11-06T20:33:38.247Z,2.00
2022-11-06T20:36:14.269Z,2.10
2022-11-06T20:38:42.435Z,2.30
2022-11-06T20:41:09.643Z,2.23
2022-11-06T20:43:36.938Z,2.30
2022-11-06T20:46:04.456Z,2.20
2022-11-06T20:48:32.869Z,2.37
2022-11-06T20:51:10.476Z,3.30
2022-11-06T20:53:39.201Z,2.73
2022-11-06T20:56:08.807Z,3.33
2022-11-06T20:58:36.115Z,2.70
2022-11-06T21:01:12.041Z,2.90
2022-11-06T21:03:40.361Z,2.93
2022-11-06T21:06:08.333Z,3.20
2022-11-06T21:08:38.080Z,2.90
2022-11-06T21:11:14.234Z,3.17
2022-11-06T21:13:41.711Z,3.50
2022-11-06T21:16:14.969Z,3.73
2022-11-06T21:18:42.684Z,3.17
2022-11-06T21:21:13.479Z,3.40
2022-11-06T21:23:41.440Z,3.13
2022-11-06T21:26:11.374Z,3.80
2022-11-06T21:28:41.183Z,3.30
2022-11-06T21:31:10.412Z,3.40
2022-11-06T21:33:41.888Z,3.17
2022-11-06T21:36:17.639Z,2.90
2022-11-06T21:38:45.818Z,3.47
2022-11-06T21:41:15.861Z,3.13
2022-11-06T21:43:43.670Z,3.80
2022-11-06T21:46:12.612Z,3.43
2022-11-06T21:48:46.490Z,3.90
2022-11-06T21:51:35.245Z,3.53
2022-11-06T21:54:21.544Z,3.33
2022-11-06T21:56:50.383Z,2.73
2022-11-06T21:59:19.784Z,3.17
2022-11-06T22:01:47.098Z,4.03
2022-11-06T22:04:15.157Z,3.33
2022-11-06T22:06:43.510Z,3.50
2022-11-06T22:09:13.093Z,3.40
2022-11-06T22:11:44.510Z,3.43
2022-11-06T22:14:14.763Z,3.30
2022-11-06T22:16:45.263Z,3.73
2022-11-06T22:19:13.609Z,4.00
2022-11-06T22:21:41.465Z,3.70
2022-11-06T22:24:11.347Z,3.40
2022-11-06T22:26:38.980Z,3.90
2022-11-06T22:29:10.289Z,3.60
2022-11-06T22:31:37.629Z,3.40
2022-11-06T22:34:05.270Z,3.20
2022-11-06T22:36:32.991Z,3.27
2022-11-06T22:39:04.305Z,3.50
2022-11-06T22:41:31.511Z,3.53
2022-11-06T22:43:59.893Z,3.20
2022-11-06T22:46:27.865Z,2.90
2022-11-06T22:48:55.748Z,3.60
2022-11-06T22:51:28.088Z,3.13
2022-11-06T22:53:55.899Z,2.97
2022-11-06T22:56:24.694Z,2.90
2022-11-06T22:59:00.109Z,3.00
2022-11-06T23:01:29.966Z,4.10
2022-11-06T23:04:06.242Z,2.80
2022-11-06T23:06:34.106Z,3.47
2022-11-06T23:09:01.709Z,3.07
2022-11-06T23:11:29.477Z,2.43
2022-11-06T23:13:58.829Z,3.60
2022-11-06T23:16:45.473Z,3.13
2022-11-06T23:19:15.618Z,3.00
2022-11-06T23:21:43.052Z,3.10
2022-11-06T23:24:10.846Z,2.60
2022-11-06T23:26:38.092Z,2.90
2022-11-06T23:29:05.275Z,3.00
2022-11-06T23:31:32.716Z,3.13
2022-11-06T23:34:00.092Z,2.73
2022-11-06T23:36:27.317Z,3.20
2022-11-06T23:38:54.521Z,2.50
2022-11-06T23:41:40.507Z,3.20
2022-11-06T23:44:27.670Z,2.70
2022-11-06T23:46:55.007Z,3.23
2022-11-06T23:49:22.869Z,3.30
2022-11-06T23:51:50.441Z,2.97
2022-11-06T23:54:17.615Z,2.57
2022-11-06T23:56:44.880Z,3.17
2022-11-06T23:59:12.748Z,3.40
